Time;durP1;ratioP1;P1;durP2;ratioP2;P2;SDS_P1;SDS_P2;PMS_P1;PMS_P2;Temp;Humidity;BMP_temperature;BMP_pressure;BME280_temperature;BME280_humidity;BME280_pressure;Samples;Min_cycle;Max_cycle;Signal;HPM_P1;HPM_P2
2023/08/16 00:01:38;;;;;;;2.00;1.35;;;;;;;17.37;77.05;102039.94;5017073;28;98325;-27
2023/08/16 00:04:04;;;;;;;3.88;1.45;;;;;;;17.37;77.78;102044.53;5016612;28;98619;-26
2023/08/16 00:06:29;;;;;;;4.05;1.77;;;;;;;17.37;77.80;102058.22;5016694;28;96581;-26
2023/08/16 00:08:58;;;;;;;3.40;1.85;;;;;;;17.32;77.99;102058.56;5016566;28;96773;-26
2023/08/16 00:11:25;;;;;;;5.00;1.52;;;;;;;17.29;77.97;102057.91;5015351;28;100521;-26
2023/08/16 00:13:50;;;;;;;2.40;1.73;;;;;;;17.26;77.82;102064.50;5015318;28;101185;-26
2023/08/16 00:16:16;;;;;;;4.25;2.10;;;;;;;17.27;78.34;102066.22;5016901;28;96629;-26
2023/08/16 00:18:41;;;;;;;2.92;1.77;;;;;;;17.23;78.60;102048.25;5016614;28;96988;-27
2023/08/16 00:21:06;;;;;;;3.55;1.42;;;;;;;17.18;78.55;102045.88;5016563;28;99439;-27
2023/08/16 00:23:32;;;;;;;3.00;1.60;;;;;;;17.17;78.94;102057.78;5017095;28;97775;-26
2023/08/16 00:25:57;;;;;;;4.88;1.88;;;;;;;17.19;78.79;102063.16;5015338;28;96688;-26
2023/08/16 00:28:23;;;;;;;2.40;1.58;;;;;;;17.20;79.13;102064.91;5016851;28;96873;-26
2023/08/16 00:30:55;;;;;;;3.53;1.90;;;;;;;17.18;78.69;102050.44;5015192;28;99379;-27
2023/08/16 00:33:21;;;;;;;3.17;1.60;;;;;;;17.16;79.13;102049.66;5015052;28;100805;-26
2023/08/16 00:35:47;;;;;;;3.45;1.75;;;;;;;17.17;78.52;102048.69;5015396;28;96602;-26
2023/08/16 00:38:12;;;;;;;2.75;1.63;;;;;;;17.21;78.95;102050.25;5014910;28;96859;-27
2023/08/16 00:40:37;;;;;;;2.88;1.75;;;;;;;17.15;78.99;102059.75;5016629;28;97306;-26
2023/08/16 00:43:03;;;;;;;5.03;1.60;;;;;;;17.21;79.26;102063.94;5016224;28;99271;-26
2023/08/16 00:45:29;;;;;;;2.08;1.30;;;;;;;17.22;79.51;102060.19;5016572;28;96582;-31
2023/08/16 00:47:55;;;;;;;2.40;1.58;;;;;;;17.25;79.51;102059.09;5015471;28;96851;-26
2023/08/16 00:50:23;;;;;;;4.38;1.90;;;;;;;17.27;79.18;102070.84;5016153;28;99429;-27
2023/08/16 00:52:51;;;;;;;2.90;1.88;;;;;;;17.23;79.42;102072.03;5014604;28;101410;-27
2023/08/16 00:55:16;;;;;;;5.07;1.65;;;;;;;17.22;79.40;102073.91;5014522;28;96588;-27
2023/08/16 00:57:42;;;;;;;2.35;1.55;;;;;;;17.19;79.50;102068.63;5015003;28;97038;-26
2023/08/16 01:00:08;;;;;;;2.70;1.60;;;;;;;17.17;79.70;102065.13;5016036;28;98012;-26
2023/08/16 01:02:34;;;;;;;2.80;1.65;;;;;;;17.22;79.50;102073.03;5014553;28;101844;-26
2023/08/16 01:05:00;;;;;;;3.08;1.67;;;;;;;17.23;79.18;102072.03;5016398;28;96562;-26
2023/08/16 01:07:25;;;;;;;4.65;1.67;;;;;;;17.21;80.46;102069.41;5015600;28;96811;-26
2023/08/16 01:09:51;;;;;;;3.33;1.95;;;;;;;17.22;79.88;102073.91;5016181;28;97335;-26
2023/08/16 01:12:31;;;;;;;2.92;1.60;;;;;;;17.28;79.54;102084.44;5016050;28;99120;-26
2023/08/16 01:15:22;;;;;;;4.25;1.80;;;;;;;17.27;79.73;102090.00;5014645;28;96621;-27
2023/08/16 01:17:50;;;;;;;3.13;1.48;;;;;;;17.22;79.89;102081.25;5016094;28;96764;-27
2023/08/16 01:20:17;;;;;;;2.47;1.42;;;;;;;17.25;79.80;102081.88;5014954;28;99261;-26
2023/08/16 01:22:46;;;;;;;5.10;1.85;;;;;;;17.23;79.93;102089.31;5014252;28;101110;-26
2023/08/16 01:25:39;;;;;;;3.05;1.50;;;;;;;17.21;79.94;102088.59;5015545;28;96709;-26
2023/08/16 01:28:05;;;;;;;4.60;1.90;;;;;;;17.16;79.42;102088.91;5011092;28;96940;-26
2023/08/16 01:30:31;;;;;;;3.80;1.60;;;;;;;17.16;80.50;102094.38;5014178;28;100982;-28
2023/08/16 01:33:06;;;;;;;2.65;1.70;;;;;;;17.11;80.26;102095.66;5013972;28;101258;-27
2023/08/16 01:35:32;;;;;;;4.28;2.00;;;;;;;17.08;79.95;102101.34;5014455;28;96659;-27
2023/08/16 01:37:57;;;;;;;2.33;1.58;;;;;;;17.06;80.44;102100.59;5014163;28;96796;-27
2023/08/16 01:40:23;;;;;;;3.40;1.77;;;;;;;17.07;80.23;102103.22;5015415;28;97941;-27
2023/08/16 01:42:50;;;;;;;2.70;1.80;;;;;;;17.06;79.96;102097.84;5014398;28;97299;-26
2023/08/16 01:45:17;;;;;;;3.88;1.92;;;;;;;17.02;80.33;102102.66;5013761;28;96553;-28
2023/08/16 01:47:45;;;;;;;5.30;1.95;;;;;;;16.97;80.34;102102.97;5014185;28;96825;-26
2023/08/16 01:50:10;;;;;;;3.70;2.08;;;;;;;16.93;80.03;102097.81;5013884;28;101015;-26
2023/08/16 01:52:36;;;;;;;5.70;2.10;;;;;;;16.98;80.02;102098.38;5015092;28;99074;-27
2023/08/16 01:55:02;;;;;;;2.92;1.80;;;;;;;16.95;80.06;102093.13;5015696;28;96452;-27
2023/08/16 01:57:28;;;;;;;4.07;2.08;;;;;;;16.91;80.10;102097.91;5013991;28;96888;-26
2023/08/16 01:59:53;;;;;;;2.95;1.63;;;;;;;16.94;80.26;102094.97;5015275;28;97507;-27
2023/08/16 02:02:18;;;;;;;4.15;1.92;;;;;;;16.84;80.04;102082.03;5015241;28;99217;-26
2023/08/16 02:04:44;;;;;;;3.67;1.90;;;;;;;16.92;80.69;102093.31;5015254;28;96613;-27
2023/08/16 02:07:09;;;;;;;2.85;1.52;;;;;;;16.89;80.64;102099.88;5015479;28;96772;-26
2023/08/16 02:09:34;;;;;;;3.05;2.13;;;;;;;16.88;80.35;102100.88;5014072;28;97865;-26
2023/08/16 02:12:00;;;;;;;6.80;2.00;;;;;;;16.87;80.39;102096.38;5015008;28;99055;-26
2023/08/16 02:14:25;;;;;;;3.67;2.28;;;;;;;16.85;80.52;102092.88;5015033;28;96539;-26
2023/08/16 02:16:50;;;;;;;3.00;1.75;;;;;;;16.80;80.28;102085.94;5015345;28;96768;-27
2023/08/16 02:19:16;;;;;;;3.90;2.10;;;;;;;16.78;80.85;102080.56;5014850;28;97573;-27
2023/08/16 02:21:41;;;;;;;3.15;1.88;;;;;;;16.79;80.43;102082.34;5014648;28;97890;-27
2023/08/16 02:24:07;;;;;;;3.95;1.83;;;;;;;16.82;80.34;102083.97;5015174;28;96516;-27
2023/08/16 02:26:33;;;;;;;3.03;1.88;;;;;;;16.82;80.10;102092.19;5013876;28;96926;-27
2023/08/16 02:28:58;;;;;;;5.00;2.08;;;;;;;16.81;80.36;102096.78;5014703;28;97540;-26
2023/08/16 02:31:24;;;;;;;4.03;1.75;;;;;;;16.80;80.81;102094.16;5014535;28;99331;-26
2023/08/16 02:33:49;;;;;;;3.92;1.67;;;;;;;16.75;80.78;102094.44;5014498;28;96567;-29
2023/08/16 02:36:14;;;;;;;3.05;1.90;;;;;;;16.77;80.45;102092.47;5014847;28;96789;-26
2023/08/16 02:38:40;;;;;;;2.72;1.75;;;;;;;16.76;80.92;102085.25;5014419;28;97851;-27
2023/08/16 02:41:05;;;;;;;7.90;2.13;;;;;;;16.79;80.00;102098.75;5014533;28;97434;-26
2023/08/16 02:43:30;;;;;;;3.17;2.10;;;;;;;16.77;80.19;102090.59;5014830;28;96599;-26
2023/08/16 02:45:56;;;;;;;4.05;1.63;;;;;;;16.77;80.54;102098.81;5014798;28;96763;-26
2023/08/16 02:48:21;;;;;;;4.25;2.00;;;;;;;16.71;79.85;102103.84;5014583;28;98561;-27
2023/08/16 02:50:47;;;;;;;5.30;2.67;;;;;;;16.73;80.40;102102.75;5014640;28;97670;-27
2023/08/16 02:53:13;;;;;;;4.95;2.67;;;;;;;16.73;80.76;102104.59;5014276;28;96874;-27
2023/08/16 02:55:39;;;;;;;4.03;2.28;;;;;;;16.71;80.94;102112.06;5021279;28;96827;-26
2023/08/16 02:58:05;;;;;;;4.00;2.63;;;;;;;16.66;80.53;102111.47;5019111;28;101046;-26
2023/08/16 03:00:30;;;;;;;4.43;2.35;;;;;;;16.57;80.90;102104.78;5020872;28;98938;-26
2023/08/16 03:02:57;;;;;;;3.83;1.85;;;;;;;16.55;81.42;102113.06;5021310;28;96506;-27
2023/08/16 03:05:22;;;;;;;4.05;2.15;;;;;;;16.52;81.53;102112.41;5019394;28;96980;-27
2023/08/16 03:07:48;;;;;;;3.42;2.20;;;;;;;16.53;81.70;102125.09;5020472;28;98197;-27
2023/08/16 03:10:13;;;;;;;7.70;2.65;;;;;;;16.52;81.69;102117.88;5020935;28;97389;-26
2023/08/16 03:12:38;;;;;;;5.53;2.40;;;;;;;16.47;81.58;102120.00;5021230;28;96524;-26
2023/08/16 03:15:04;;;;;;;4.05;2.28;;;;;;;16.47;81.66;102122.75;5021640;28;96828;-27
2023/08/16 03:17:30;;;;;;;4.47;2.10;;;;;;;16.44;81.53;102122.97;5020758;28;98828;-27
2023/08/16 03:19:55;;;;;;;3.28;1.98;;;;;;;16.40;81.67;102118.66;5020354;28;98831;-26
2023/08/16 03:22:20;;;;;;;3.53;2.08;;;;;;;16.39;82.02;102123.25;5020399;28;96620;-26
2023/08/16 03:24:49;;;;;;;3.67;1.88;;;;;;;16.34;82.13;102129.03;5021275;28;96804;-26
2023/08/16 03:27:15;;;;;;;4.22;2.25;;;;;;;16.32;82.32;102141.91;5019216;28;101196;-27
2023/08/16 03:29:41;;;;;;;4.05;2.33;;;;;;;16.25;82.04;102129.63;5020719;28;97776;-27
2023/08/16 03:32:07;;;;;;;5.70;2.47;;;;;;;16.23;82.30;102127.97;5019560;28;96641;-26
2023/08/16 03:34:32;;;;;;;3.97;2.13;;;;;;;16.22;82.17;102132.56;5020812;28;97014;-27
2023/08/16 03:36:57;;;;;;;3.63;2.05;;;;;;;16.18;82.18;102125.53;5021027;28;96992;-27
2023/08/16 03:39:23;;;;;;;3.90;1.92;;;;;;;16.17;81.98;102126.53;5020816;28;97888;-26
2023/08/16 03:41:49;;;;;;;4.50;2.50;;;;;;;16.18;82.54;102131.00;5020756;28;96654;-26
2023/08/16 03:44:14;;;;;;;3.90;2.35;;;;;;;16.11;81.68;102127.81;5020839;28;96777;-26
2023/08/16 03:46:39;;;;;;;3.80;2.22;;;;;;;16.11;82.50;102124.19;5019763;28;98981;-27
2023/08/16 03:49:05;;;;;;;4.30;1.95;;;;;;;16.12;82.43;102131.41;5020418;28;97271;-27
2023/08/16 03:51:31;;;;;;;4.50;2.25;;;;;;;16.05;82.49;102124.59;5020776;28;96551;-27
2023/08/16 03:53:57;;;;;;;3.88;2.17;;;;;;;16.07;82.31;102137.19;5019209;28;96935;-26
2023/08/16 03:56:22;;;;;;;4.28;2.33;;;;;;;16.01;82.01;102128.50;5020431;28;97334;-27
2023/08/16 03:58:47;;;;;;;5.13;2.45;;;;;;;15.98;82.21;102135.03;5020296;28;97286;-26
2023/08/16 04:01:13;;;;;;;4.65;2.80;;;;;;;15.98;82.44;102143.22;5020724;28;96640;-26
2023/08/16 04:03:38;;;;;;;4.28;2.40;;;;;;;16.01;82.70;102140.28;5020806;28;96696;-27
2023/08/16 04:06:10;;;;;;;4.18;2.75;;;;;;;15.99;82.66;102141.38;5016942;28;97967;-27
2023/08/16 04:08:36;;;;;;;5.18;2.47;;;;;;;16.00;82.43;102141.28;5016072;28;99062;-27
2023/08/16 04:11:01;;;;;;;5.25;2.55;;;;;;;15.96;82.75;102128.78;5016631;28;96640;-26
2023/08/16 04:13:26;;;;;;;4.40;3.03;;;;;;;15.98;82.65;102137.75;5017130;28;96805;-26
2023/08/16 04:15:52;;;;;;;5.20;3.20;;;;;;;15.94;82.38;102133.47;5016775;28;97925;-26
2023/08/16 04:18:17;;;;;;;5.03;3.05;;;;;;;15.96;82.83;102138.84;5016614;28;98731;-26
2023/08/16 04:20:43;;;;;;;5.20;3.47;;;;;;;15.93;82.96;102135.31;5017044;28;96605;-27
2023/08/16 04:23:08;;;;;;;7.15;3.40;;;;;;;15.91;83.06;102128.19;5017056;28;96767;-27
2023/08/16 04:25:33;;;;;;;4.93;3.08;;;;;;;15.90;83.25;102131.91;5016720;28;97995;-26
2023/08/16 04:27:59;;;;;;;5.30;3.40;;;;;;;15.91;83.39;102136.41;5016972;28;97793;-26
2023/08/16 04:30:24;;;;;;;5.90;3.40;;;;;;;15.89;83.38;102136.47;5016598;28;96569;-28
2023/08/16 04:32:50;;;;;;;5.05;3.35;;;;;;;15.94;83.55;102141.66;5016385;28;96554;-26
2023/08/16 04:35:15;;;;;;;5.20;3.17;;;;;;;15.90;83.40;102135.53;5014559;28;101312;-26
2023/08/16 04:37:40;;;;;;;6.13;3.03;;;;;;;15.95;83.46;102142.56;5016006;28;99173;-26
2023/08/16 04:40:06;;;;;;;7.05;3.15;;;;;;;15.93;83.78;102140.78;5016626;28;96782;-27
2023/08/16 04:42:34;;;;;;;5.57;3.10;;;;;;;15.98;83.16;102145.09;5015144;28;96850;-26
2023/08/16 04:45:00;;;;;;;6.43;3.28;;;;;;;15.99;83.58;102142.25;5016406;28;98482;-26
2023/08/16 04:47:26;;;;;;;6.78;3.08;;;;;;;16.02;83.63;102139.34;5014690;28;100911;-26
2023/08/16 04:49:51;;;;;;;5.80;3.33;;;;;;;16.03;83.38;102135.63;5016613;28;96687;-26
2023/08/16 04:52:16;;;;;;;7.22;3.47;;;;;;;15.99;83.47;102136.78;5016749;28;96846;-26
2023/08/16 04:54:42;;;;;;;7.07;3.67;;;;;;;16.01;83.38;102132.09;5016394;28;97380;-27
2023/08/16 04:57:07;;;;;;;6.25;3.60;;;;;;;15.99;83.44;102131.31;5016187;28;97877;-27
2023/08/16 04:59:32;;;;;;;7.50;3.20;;;;;;;16.01;83.72;102143.03;5015902;28;96532;-27
2023/08/16 05:01:58;;;;;;;4.38;3.15;;;;;;;16.02;84.00;102149.41;5016551;28;96790;-27
2023/08/16 05:04:23;;;;;;;5.47;3.20;;;;;;;16.05;83.65;102147.31;5015937;28;99522;-26
2023/08/16 05:06:48;;;;;;;5.93;2.92;;;;;;;16.04;83.96;102139.22;5015914;28;97748;-26
2023/08/16 05:09:14;;;;;;;5.72;3.22;;;;;;;16.07;83.95;102144.50;5016073;28;96885;-27
2023/08/16 05:11:39;;;;;;;6.43;3.38;;;;;;;16.09;84.34;102151.63;5016074;28;96944;-26
2023/08/16 05:14:05;;;;;;;6.20;3.53;;;;;;;16.09;84.03;102146.16;5015925;28;97894;-27
2023/08/16 05:16:30;;;;;;;5.22;3.17;;;;;;;16.16;83.76;102154.84;5015744;28;97245;-27
2023/08/16 05:18:57;;;;;;;8.30;3.15;;;;;;;16.11;83.75;102149.69;5015864;28;96513;-27
2023/08/16 05:21:23;;;;;;;5.80;3.08;;;;;;;16.07;83.80;102133.56;5016019;28;96918;-26
2023/08/16 05:23:48;;;;;;;5.45;2.90;;;;;;;16.22;83.44;102159.03;5013861;28;101390;-26
2023/08/16 05:26:13;;;;;;;6.03;3.25;;;;;;;16.24;83.41;102157.97;5015425;28;99081;-26
2023/08/16 05:28:39;;;;;;;5.43;3.22;;;;;;;16.32;83.04;102160.19;5016304;28;96571;-27
2023/08/16 05:31:08;;;;;;;7.00;3.28;;;;;;;16.34;83.81;102158.25;5015982;28;96892;-27
2023/08/16 05:33:34;;;;;;;5.22;2.80;;;;;;;16.34;84.02;102152.78;5014069;28;101591;-26
2023/08/16 05:35:59;;;;;;;5.45;3.03;;;;;;;16.38;83.92;102161.66;5015488;28;97396;-26
2023/08/16 05:38:25;;;;;;;4.47;3.05;;;;;;;16.42;83.73;102155.91;5015791;28;96504;-29
2023/08/16 05:40:51;;;;;;;4.70;2.88;;;;;;;16.43;83.25;102157.66;5015910;28;96828;-27
2023/08/16 05:43:16;;;;;;;4.13;2.33;;;;;;;16.47;83.55;102166.50;5015794;28;97354;-27
2023/08/16 05:45:41;;;;;;;5.28;2.88;;;;;;;16.45;83.62;102160.28;5015160;28;98328;-26
2023/08/16 05:48:07;;;;;;;4.13;2.55;;;;;;;16.48;83.39;102165.56;5014904;28;96558;-27
2023/08/16 05:50:34;;;;;;;5.10;2.80;;;;;;;16.50;83.79;102163.59;5015716;28;96865;-26
2023/08/16 05:52:59;;;;;;;4.78;2.67;;;;;;;16.54;83.11;102176.06;5013782;28;101772;-26
2023/08/16 05:55:25;;;;;;;6.53;2.75;;;;;;;16.56;82.66;102182.31;5015167;28;98959;-27
2023/08/16 05:57:50;;;;;;;4.47;2.38;;;;;;;16.60;82.62;102183.03;5015630;28;96552;-27
2023/08/16 06:00:16;;;;;;;4.28;1.98;;;;;;;16.61;82.27;102173.81;5015418;28;96776;-27
2023/08/16 06:02:41;;;;;;;3.92;2.15;;;;;;;16.72;82.74;102182.22;5014689;28;99956;-27
2023/08/16 06:05:07;;;;;;;3.92;2.25;;;;;;;16.68;81.86;102172.44;5015621;28;97335;-27
2023/08/16 06:07:33;;;;;;;3.95;1.77;;;;;;;16.75;81.69;102191.06;5013339;28;96725;-27
2023/08/16 06:09:58;;;;;;;3.80;2.15;;;;;;;16.75;81.78;102173.78;5015216;28;96580;-28
2023/08/16 06:12:24;;;;;;;4.80;2.20;;;;;;;16.77;82.03;102180.03;5014517;28;97992;-26
2023/08/16 06:14:49;;;;;;;4.70;1.75;;;;;;;16.82;82.39;102182.50;5014867;28;97795;-27
2023/08/16 06:17:14;;;;;;;3.53;2.47;;;;;;;16.87;81.25;102178.47;5015121;28;96622;-26
2023/08/16 06:19:40;;;;;;;3.50;2.28;;;;;;;17.00;82.14;102183.16;5015623;28;96803;-26
2023/08/16 06:22:05;;;;;;;4.68;2.38;;;;;;;17.12;81.65;102187.78;5014711;28;99127;-27
2023/08/16 06:24:33;;;;;;;4.57;2.40;;;;;;;17.20;81.43;102189.00;5014842;28;97804;-26
2023/08/16 06:26:58;;;;;;;3.38;1.98;;;;;;;17.23;81.62;102187.03;5012176;28;96699;-29
2023/08/16 06:29:24;;;;;;;3.42;2.15;;;;;;;17.29;81.71;102183.91;5012223;28;96797;-27
2023/08/16 06:31:49;;;;;;;5.60;2.40;;;;;;;17.35;80.76;102198.06;5012338;28;97936;-26
2023/08/16 06:34:16;;;;;;;4.97;2.20;;;;;;;17.44;80.99;102184.69;5012444;28;97831;-30
2023/08/16 06:36:43;;;;;;;7.85;2.63;;;;;;;17.47;81.00;102182.63;5010590;28;97050;-26
2023/08/16 06:39:08;;;;;;;3.53;2.17;;;;;;;17.47;80.42;102188.13;5010887;28;97255;-27
2023/08/16 06:41:33;;;;;;;4.10;2.03;;;;;;;17.49;80.61;102194.34;5012778;28;98109;-27
2023/08/16 06:43:59;;;;;;;5.13;2.25;;;;;;;17.55;80.47;102201.28;5014255;28;97762;-26
2023/08/16 06:46:24;;;;;;;3.50;2.13;;;;;;;17.53;80.90;102198.63;5014449;28;96508;-26
2023/08/16 06:48:50;;;;;;;3.42;2.28;;;;;;;17.65;80.78;102188.69;5014974;28;96848;-26
2023/08/16 06:51:15;;;;;;;6.40;3.00;;;;;;;17.90;79.83;102206.16;5013069;28;100816;-27
2023/08/16 06:53:43;;;;;;;7.90;2.15;;;;;;;17.98;80.61;102203.75;5014961;28;97772;-27
2023/08/16 06:56:08;;;;;;;3.88;2.03;;;;;;;18.14;79.73;102203.53;5013199;28;96612;-26
2023/08/16 06:58:34;;;;;;;3.30;1.98;;;;;;;18.33;79.22;102195.75;5014722;28;96830;-28
2023/08/16 07:00:59;;;;;;;5.32;2.65;;;;;;;18.59;78.30;102193.81;5013960;28;97403;-28
2023/08/16 07:03:25;;;;;;;3.67;2.22;;;;;;;18.68;78.01;102195.00;5014084;28;99527;-27
2023/08/16 07:05:51;;;;;;;6.32;1.80;;;;;;;18.92;78.03;102202.41;5014236;28;96614;-26
2023/08/16 07:08:16;;;;;;;4.60;1.90;;;;;;;19.10;77.35;102195.53;5012244;28;97012;-27
2023/08/16 07:10:43;;;;;;;3.45;2.13;;;;;;;19.29;76.51;102208.75;5014253;28;98128;-26
2023/08/16 07:13:08;;;;;;;4.15;2.10;;;;;;;19.30;76.58;102199.50;5012329;28;98966;-27
2023/08/16 07:15:34;;;;;;;3.97;1.85;;;;;;;19.43;76.47;102197.56;5014688;28;97034;-27
2023/08/16 07:18:00;;;;;;;6.38;2.08;;;;;;;19.56;75.82;102194.72;5014750;28;96850;-27
2023/08/16 07:20:25;;;;;;;2.75;1.67;;;;;;;19.75;75.53;102196.94;5012723;28;101412;-26
2023/08/16 07:22:51;;;;;;;4.82;1.80;;;;;;;19.65;75.21;102194.00;5013863;28;99068;-26
2023/08/16 07:25:16;;;;;;;4.55;2.08;;;;;;;19.66;75.43;102205.88;5014034;28;96542;-26
2023/08/16 07:27:41;;;;;;;5.75;2.15;;;;;;;19.81;75.17;102193.72;5013837;28;97017;-26
2023/08/16 07:30:07;;;;;;;3.40;1.80;;;;;;;20.06;74.70;102192.63;5012865;28;97969;-26
2023/08/16 07:32:32;;;;;;;3.70;1.80;;;;;;;20.19;74.18;102197.13;5013807;28;100251;-26
2023/08/16 07:34:58;;;;;;;3.67;1.75;;;;;;;20.13;73.55;102198.50;5014275;28;96592;-26
2023/08/16 07:37:28;;;;;;;3.33;1.65;;;;;;;20.16;73.12;102203.75;5014131;28;96830;-26
2023/08/16 07:39:55;;;;;;;4.55;2.10;;;;;;;20.10;73.11;102199.63;5012274;28;98987;-26
2023/08/16 07:42:22;;;;;;;7.35;1.90;;;;;;;20.16;73.21;102201.00;5015817;28;98828;-26
2023/08/16 07:44:47;;;;;;;2.72;1.60;;;;;;;20.32;72.73;102203.41;5016147;28;96609;-26
2023/08/16 07:47:14;;;;;;;3.72;1.67;;;;;;;20.54;72.84;102205.25;5017280;28;96856;-27
2023/08/16 07:49:40;;;;;;;1.90;1.27;;;;;;;20.63;72.17;102195.41;5016609;28;99625;-26
2023/08/16 07:52:05;;;;;;;2.80;1.45;;;;;;;20.84;71.18;102210.13;5017166;28;97920;-26
2023/08/16 07:54:31;;;;;;;4.05;1.85;;;;;;;21.05;70.64;102209.34;5017207;28;96555;-28
2023/08/16 07:56:56;;;;;;;2.30;1.52;;;;;;;21.06;70.49;102209.22;5017135;28;96828;-26
2023/08/16 07:59:22;;;;;;;2.55;1.80;;;;;;;21.27;70.51;102200.13;5017001;28;97350;-26
2023/08/16 08:01:47;;;;;;;4.78;1.90;;;;;;;21.40;69.40;102198.09;5016910;28;99296;-26
2023/08/16 08:04:13;;;;;;;2.60;1.58;;;;;;;21.61;69.05;102217.41;5015766;28;96748;-26
2023/08/16 08:06:38;;;;;;;2.60;1.55;;;;;;;21.71;69.28;102209.22;5017522;28;96803;-26
2023/08/16 08:09:04;;;;;;;4.57;2.03;;;;;;;21.80;68.32;102212.03;5016323;28;98997;-27
2023/08/16 08:11:29;;;;;;;4.50;1.90;;;;;;;21.97;68.37;102221.59;5016504;28;99652;-26
2023/08/16 08:13:56;;;;;;;3.50;1.27;;;;;;;22.10;67.44;102223.28;5016655;28;96553;-27
2023/08/16 08:16:22;;;;;;;2.45;1.23;;;;;;;22.18;66.14;102229.00;5016986;28;96843;-26
2023/08/16 08:18:48;;;;;;;2.17;1.13;;;;;;;22.16;65.32;102223.59;5016530;28;99200;-26
2023/08/16 08:21:13;;;;;;;2.08;1.15;;;;;;;22.11;64.03;102217.63;5015230;28;101056;-26
2023/08/16 08:23:39;;;;;;;3.50;1.27;;;;;;;22.13;64.65;102211.97;5017256;28;96721;-26
2023/08/16 08:26:06;;;;;;;4.05;1.17;;;;;;;22.10;64.60;102204.84;5016417;28;96838;-27
2023/08/16 08:28:31;;;;;;;1.23;0.88;;;;;;;22.35;64.13;102225.63;5015053;28;100894;-28
2023/08/16 08:30:57;;;;;;;0.93;0.82;;;;;;;22.45;61.92;102232.09;5017068;28;97361;-27
2023/08/16 08:33:22;;;;;;;1.25;0.80;;;;;;;22.57;62.55;102229.19;5017025;28;96546;-27
2023/08/16 08:35:49;;;;;;;1.27;0.50;;;;;;;22.67;61.70;102225.47;5016859;28;96922;-26
2023/08/16 08:38:14;;;;;;;1.58;0.82;;;;;;;22.94;61.44;102237.75;5015590;28;99454;-26
2023/08/16 08:40:40;;;;;;;1.83;1.05;;;;;;;22.72;61.17;102229.72;5016306;28;97772;-26
2023/08/16 08:43:06;;;;;;;2.33;0.95;;;;;;;22.87;60.87;102236.59;5016691;28;96516;-26
2023/08/16 08:45:32;;;;;;;3.28;1.05;;;;;;;23.13;62.09;102231.44;5017000;28;96804;-27
2023/08/16 08:47:58;;;;;;;1.98;0.95;;;;;;;23.38;60.35;102231.91;5016250;28;97386;-26
2023/08/16 08:50:24;;;;;;;0.65;0.50;;;;;;;23.49;59.85;102234.53;5014640;28;101318;-27
2023/08/16 08:52:51;;;;;;;1.08;0.52;;;;;;;23.53;56.07;102233.22;5016210;28;96733;-27
2023/08/16 08:55:18;;;;;;;2.47;0.80;;;;;;;23.44;58.27;102239.63;5015276;28;96837;-26
2023/08/16 08:57:50;;;;;;;6.15;0.60;;;;;;;23.62;57.97;102245.28;5014638;28;100689;-27
2023/08/16 09:00:19;;;;;;;0.70;0.40;;;;;;;23.61;56.71;102244.44;5016078;28;98786;-27
2023/08/16 09:02:46;;;;;;;1.13;0.45;;;;;;;23.67;54.98;102252.16;5014555;28;96702;-27
2023/08/16 09:05:13;;;;;;;1.30;0.57;;;;;;;23.90;56.71;102249.09;5014868;28;96861;-27
2023/08/16 09:07:41;;;;;;;3.25;0.80;;;;;;;24.06;55.95;102252.13;5013810;28;100961;-26
2023/08/16 09:10:07;;;;;;;3.08;0.80;;;;;;;24.03;56.56;102251.56;5014518;28;100653;-28
2023/08/16 09:12:32;;;;;;;1.35;0.63;;;;;;;24.10;56.36;102234.22;5014943;28;96620;-27
2023/08/16 09:14:58;;;;;;;2.10;0.60;;;;;;;24.27;55.66;102240.00;5016653;28;96797;-27
2023/08/16 09:17:23;;;;;;;2.55;1.00;;;;;;;24.48;55.60;102248.09;5015730;28;99312;-26
2023/08/16 09:19:49;;;;;;;4.43;0.82;;;;;;;24.64;55.32;102239.16;5016326;28;98014;-27
2023/08/16 09:22:15;;;;;;;1.15;0.60;;;;;;;24.70;55.60;102238.56;5015854;28;96578;-27
2023/08/16 09:24:43;;;;;;;2.17;1.08;;;;;;;24.84;55.78;102240.81;5014446;28;96861;-27
2023/08/16 09:27:10;;;;;;;1.70;1.00;;;;;;;24.96;54.51;102236.78;5013613;28;100628;-28
2023/08/16 09:29:39;;;;;;;0.77;0.50;;;;;;;25.10;53.93;102229.84;5014251;28;100786;-27
2023/08/16 09:32:08;;;;;;;1.58;0.75;;;;;;;25.12;54.41;102225.03;5014552;28;96675;-27
2023/08/16 09:34:35;;;;;;;1.90;0.75;;;;;;;25.27;52.96;102238.41;5014384;28;96861;-27
2023/08/16 09:37:02;;;;;;;2.00;0.73;;;;;;;25.23;53.93;102226.72;5013754;28;101544;-26
2023/08/16 09:39:28;;;;;;;2.65;1.00;;;;;;;25.38;53.50;102227.91;5013912;28;100849;-27
2023/08/16 09:41:54;;;;;;;3.85;0.77;;;;;;;25.39;53.89;102218.56;5015831;28;96720;-27
2023/08/16 09:44:19;;;;;;;1.42;0.63;;;;;;;25.48;53.39;102224.19;5016206;28;96901;-27
2023/08/16 09:46:46;;;;;;;2.08;0.52;;;;;;;25.59;53.50;102221.19;5015419;28;97957;-27
2023/08/16 09:49:11;;;;;;;0.60;0.60;;;;;;;25.71;52.06;102227.34;5013725;28;100793;-27
2023/08/16 09:51:39;;;;;;;2.67;1.13;;;;;;;25.81;52.24;102222.56;5015209;28;96758;-27
2023/08/16 09:54:12;;;;;;;1.77;0.98;;;;;;;25.65;51.84;102217.78;5014136;28;96894;-27
2023/08/16 09:56:37;;;;;;;1.35;0.68;;;;;;;25.74;52.65;102221.47;5013698;28;100616;-26
2023/08/16 09:59:05;;;;;;;0.77;0.60;;;;;;;25.75;50.92;102215.78;5015209;28;97295;-27
2023/08/16 10:01:33;;;;;;;3.95;0.98;;;;;;;25.69;50.95;102216.41;5014113;28;96597;-27
2023/08/16 10:03:59;;;;;;;0.90;0.52;;;;;;;25.71;50.48;102228.22;5012874;28;96833;-26
2023/08/16 10:06:26;;;;;;;1.88;0.57;;;;;;;25.54;51.30;102209.69;5013476;28;100900;-27
2023/08/16 10:08:52;;;;;;;1.77;0.77;;;;;;;25.67;50.83;102206.50;5014936;28;97882;-27
2023/08/16 10:11:22;;;;;;;3.25;0.63;;;;;;;25.74;51.37;102210.38;5013816;28;96600;-27
2023/08/16 10:13:47;;;;;;;1.20;0.57;;;;;;;25.74;51.01;102221.47;5013887;28;96848;-26
2023/08/16 10:16:14;;;;;;;1.40;0.55;;;;;;;25.76;50.52;102209.16;5014200;28;99728;-26
2023/08/16 10:18:42;;;;;;;1.98;0.60;;;;;;;25.88;50.55;102217.28;5013148;28;101183;-26
2023/08/16 10:21:11;;;;;;;2.90;0.70;;;;;;;25.92;51.36;102213.16;5013628;28;96814;-26
2023/08/16 10:23:38;;;;;;;1.00;0.63;;;;;;;26.04;47.96;102209.06;5013783;28;96916;-26
2023/08/16 10:26:08;;;;;;;3.83;0.57;;;;;;;26.10;49.21;102216.78;5014637;28;98458;-27
2023/08/16 10:28:35;;;;;;;1.45;0.60;;;;;;;26.17;48.06;102214.19;5013252;28;100966;-28
2023/08/16 10:31:01;;;;;;;0.93;0.57;;;;;;;26.34;48.47;102212.38;5013568;28;96779;-27
2023/08/16 10:33:33;;;;;;;1.30;0.63;;;;;;;26.37;49.22;102199.03;5014020;28;96941;-27
2023/08/16 10:36:02;;;;;;;1.45;0.70;;;;;;;26.47;48.30;102212.81;5013147;28;101589;-26
2023/08/16 10:38:38;;;;;;;1.25;0.60;;;;;;;26.45;47.34;102217.66;5012794;28;101633;-26
2023/08/16 10:41:11;;;;;;;1.38;0.68;;;;;;;26.36;48.31;102213.97;5013020;28;96592;-26
2023/08/16 10:43:37;;;;;;;1.02;0.50;;;;;;;26.46;47.51;102214.72;5013386;28;96805;-26
2023/08/16 10:46:02;;;;;;;0.77;0.47;;;;;;;26.46;47.22;102222.19;5014716;28;97395;-27
2023/08/16 10:48:34;;;;;;;0.80;0.40;;;;;;;26.48;45.03;102221.00;5014719;28;97827;-26
2023/08/16 10:51:05;;;;;;;1.25;0.50;;;;;;;26.51;47.14;102222.56;5013258;28;96642;-27
2023/08/16 10:53:31;;;;;;;2.00;0.70;;;;;;;26.55;46.43;102212.00;5013381;28;96781;-26
2023/08/16 10:55:57;;;;;;;1.58;0.70;;;;;;;26.63;44.75;102217.63;5012903;28;100963;-26
2023/08/16 10:58:24;;;;;;;3.20;0.55;;;;;;;26.68;45.82;102217.97;5014697;28;98690;-26
2023/08/16 11:00:58;;;;;;;0.75;0.40;;;;;;;26.79;45.56;102223.25;5013332;28;96714;-27
2023/08/16 11:03:34;;;;;;;1.65;0.45;;;;;;;26.98;45.05;102207.28;5013169;28;96967;-27
2023/08/16 11:06:06;;;;;;;1.20;0.50;;;;;;;27.08;45.24;102208.03;5012249;28;101328;-26
2023/08/16 11:08:31;;;;;;;1.10;0.47;;;;;;;27.07;45.45;102196.00;5012013;28;101356;-26
2023/08/16 11:10:58;;;;;;;0.32;0.32;;;;;;;27.09;46.13;102199.50;5014395;28;96586;-27
2023/08/16 11:13:28;;;;;;;0.63;0.43;;;;;;;27.31;45.32;102199.91;5013422;28;96801;-27
2023/08/16 11:15:54;;;;;;;1.00;0.70;;;;;;;27.48;46.10;102198.03;5015293;28;101132;-27
2023/08/16 11:18:32;;;;;;;1.00;0.65;;;;;;;27.28;42.68;102200.28;5017737;28;97327;-26
2023/08/16 11:20:59;;;;;;;1.23;0.60;;;;;;;27.28;43.88;102194.72;5016547;28;96608;-26